sensor_id;sensor_type;location;lat;lon;timestamp;pressure;altitude;pressure_sealevel;temperature;humidity
12172;BME280;6149;52.418;13.668;2023-02-28T00:00:00;102707.97;;;-0.36;100.00
12172;BME280;6149;52.418;13.668;2023-02-28T00:02:33;102708.88;;;-0.34;100.00
12172;BME280;6149;52.418;13.668;2023-02-28T00:05:00;102714.06;;;-0.34;100.00
12172;BME280;6149;52.418;13.668;2023-02-28T00:07:28;102713.22;;;-0.33;100.00
12172;BME280;6149;52.418;13.668;2023-02-28T00:09:55;102707.16;;;-0.34;100.00
12172;BME280;6149;52.418;13.668;2023-02-28T00:12:23;102709.78;;;-0.32;100.00
12172;BME280;6149;52.418;13.668;2023-02-28T00:14:50;102715.84;;;-0.33;100.00
12172;BME280;6149;52.418;13.668;2023-02-28T00:17:17;102714.91;;;-0.35;100.00
12172;BME280;6149;52.418;13.668;2023-02-28T00:19:46;102720.13;;;-0.35;100.00
12172;BME280;6149;52.418;13.668;2023-02-28T00:22:13;102715.78;;;-0.35;100.00
12172;BME280;6149;52.418;13.668;2023-02-28T00:24:40;102711.47;;;-0.34;100.00
12172;BME280;6149;52.418;13.668;2023-02-28T00:27:07;102710.59;;;-0.35;100.00
12172;BME280;6149;52.418;13.668;2023-02-28T00:29:35;102710.63;;;-0.33;100.00
12172;BME280;6149;52.418;13.668;2023-02-28T00:32:02;102714.91;;;-0.35;100.00
12172;BME280;6149;52.418;13.668;2023-02-28T00:34:30;102708.84;;;-0.36;100.00
12172;BME280;6149;52.418;13.668;2023-02-28T00:37:04;102712.31;;;-0.35;100.00
12172;BME280;6149;52.418;13.668;2023-02-28T00:39:33;102708.84;;;-0.36;100.00
12172;BME280;6149;52.418;13.668;2023-02-28T00:42:01;102709.69;;;-0.37;100.00
12172;BME280;6149;52.418;13.668;2023-02-28T00:44:27;102715.75;;;-0.38;100.00
12172;BME280;6149;52.418;13.668;2023-02-28T00:46:55;102707.00;;;-0.41;100.00
12172;BME280;6149;52.418;13.668;2023-02-28T00:49:23;102711.41;;;-0.37;100.00
12172;BME280;6149;52.418;13.668;2023-02-28T00:51:50;102713.91;;;-0.42;100.00
12172;BME280;6149;52.418;13.668;2023-02-28T00:54:19;102705.97;;;-0.46;100.00
12172;BME280;6149;52.418;13.668;2023-02-28T00:56:46;102716.34;;;-0.48;100.00
12172;BME280;6149;52.418;13.668;2023-02-28T00:59:13;102711.06;;;-0.51;100.00
12172;BME280;6149;52.418;13.668;2023-02-28T01:01:41;102715.38;;;-0.51;100.00
12172;BME280;6149;52.418;13.668;2023-02-28T01:04:10;102713.66;;;-0.51;100.00
12172;BME280;6149;52.418;13.668;2023-02-28T01:06:37;102709.25;;;-0.53;100.00
12172;BME280;6149;52.418;13.668;2023-02-28T01:09:05;102706.66;;;-0.53;100.00
12172;BME280;6149;52.418;13.668;2023-02-28T01:11:32;102698.88;;;-0.53;100.00
12172;BME280;6149;52.418;13.668;2023-02-28T01:13:59;102704.91;;;-0.54;100.00
12172;BME280;6149;52.418;13.668;2023-02-28T01:16:27;102705.78;;;-0.54;100.00
12172;BME280;6149;52.418;13.668;2023-02-28T01:18:54;102711.81;;;-0.55;100.00
12172;BME280;6149;52.418;13.668;2023-02-28T01:21:22;102700.59;;;-0.54;100.00
12172;BME280;6149;52.418;13.668;2023-02-28T01:23:49;102703.19;;;-0.54;100.00
12172;BME280;6149;52.418;13.668;2023-02-28T01:26:20;102702.31;;;-0.54;100.00
12172;BME280;6149;52.418;13.668;2023-02-28T01:28:48;102702.25;;;-0.56;100.00
12172;BME280;6149;52.418;13.668;2023-02-28T01:31:15;102700.50;;;-0.57;100.00
12172;BME280;6149;52.418;13.668;2023-02-28T01:33:43;102703.13;;;-0.55;100.00
12172;BME280;6149;52.418;13.668;2023-02-28T01:36:13;102695.31;;;-0.57;100.00
12172;BME280;6149;52.418;13.668;2023-02-28T01:38:43;102691.81;;;-0.57;100.00
12172;BME280;6149;52.418;13.668;2023-02-28T01:41:15;102696.97;;;-0.59;100.00
12172;BME280;6149;52.418;13.668;2023-02-28T01:43:57;102705.63;;;-0.60;100.00
12172;BME280;6149;52.418;13.668;2023-02-28T01:46:28;102695.13;;;-0.63;100.00
12172;BME280;6149;52.418;13.668;2023-02-28T01:49:00;102697.56;;;-0.69;100.00
12172;BME280;6149;52.418;13.668;2023-02-28T01:51:36;102697.53;;;-0.71;100.00
12172;BME280;6149;52.418;13.668;2023-02-28T01:54:08;102698.38;;;-0.72;100.00
12172;BME280;6149;52.418;13.668;2023-02-28T01:56:42;102700.03;;;-0.74;100.00
12172;BME280;6149;52.418;13.668;2023-02-28T01:59:14;102705.19;;;-0.77;100.00
12172;BME280;6149;52.418;13.668;2023-02-28T02:01:46;102698.16;;;-0.81;100.00
12172;BME280;6149;52.418;13.668;2023-02-28T02:04:13;102679.84;;;-0.85;100.00
12172;BME280;6149;52.418;13.668;2023-02-28T02:06:42;102690.97;;;-0.89;100.00
12172;BME280;6149;52.418;13.668;2023-02-28T02:09:12;102692.59;;;-0.93;100.00
12172;BME280;6149;52.418;13.668;2023-02-28T02:11:39;102694.19;;;-0.98;100.00
12172;BME280;6149;52.418;13.668;2023-02-28T02:14:16;102691.38;;;-1.06;100.00
12172;BME280;6149;52.418;13.668;2023-02-28T02:17:04;102694.66;;;-1.13;100.00
12172;BME280;6149;52.418;13.668;2023-02-28T02:19:53;102691.88;;;-1.19;100.00
12172;BME280;6149;52.418;13.668;2023-02-28T02:22:49;102690.81;;;-1.25;100.00
12172;BME280;6149;52.418;13.668;2023-02-28T02:25:35;102690.56;;;-1.35;100.00
12172;BME280;6149;52.418;13.668;2023-02-28T02:28:35;102685.19;;;-1.41;100.00
12172;BME280;6149;52.418;13.668;2023-02-28T02:31:40;102686.75;;;-1.46;100.00
12172;BME280;6149;52.418;13.668;2023-02-28T02:34:32;102684.06;;;-1.50;100.00
12172;BME280;6149;52.418;13.668;2023-02-28T02:37:24;102691.59;;;-1.58;100.00
12172;BME280;6149;52.418;13.668;2023-02-28T02:39:58;102686.22;;;-1.64;100.00
12172;BME280;6149;52.418;13.668;2023-02-28T02:42:33;102694.69;;;-1.70;100.00
12172;BME280;6149;52.418;13.668;2023-02-28T02:45:06;102691.97;;;-1.74;100.00
12172;BME280;6149;52.418;13.668;2023-02-28T02:47:35;102687.47;;;-1.80;100.00
12172;BME280;6149;52.418;13.668;2023-02-28T02:50:06;102689.91;;;-1.84;100.00
12172;BME280;6149;52.418;13.668;2023-02-28T02:52:38;102695.03;;;-1.87;100.00
12172;BME280;6149;52.418;13.668;2023-02-28T02:55:11;102692.28;;;-1.92;100.00
12172;BME280;6149;52.418;13.668;2023-02-28T02:57:45;102692.22;;;-1.93;100.00
12172;BME280;6149;52.418;13.668;2023-02-28T03:00:16;102689.44;;;-1.99;100.00
12172;BME280;6149;52.418;13.668;2023-02-28T03:02:47;102687.63;;;-2.02;100.00
12172;BME280;6149;52.418;13.668;2023-02-28T03:05:19;102692.72;;;-2.05;100.00
12172;BME280;6149;52.418;13.668;2023-02-28T03:07:48;102688.31;;;-2.08;100.00
12172;BME280;6149;52.418;13.668;2023-02-28T03:10:37;102691.59;;;-2.13;100.00
12172;BME280;6149;52.418;13.668;2023-02-28T03:13:39;102690.59;;;-2.17;100.00
12172;BME280;6149;52.418;13.668;2023-02-28T03:16:27;102699.91;;;-2.23;100.00
12172;BME280;6149;52.418;13.668;2023-02-28T03:19:05;102703.22;;;-2.27;100.00
12172;BME280;6149;52.418;13.668;2023-02-28T03:21:44;102698.81;;;-2.30;100.00
12172;BME280;6149;52.418;13.668;2023-02-28T03:24:19;102703.13;;;-2.30;100.00
12172;BME280;6149;52.418;13.668;2023-02-28T03:26:53;102701.25;;;-2.34;100.00
12172;BME280;6149;52.418;13.668;2023-02-28T03:29:25;102708.88;;;-2.39;100.00
12172;BME280;6149;52.418;13.668;2023-02-28T03:31:58;102707.81;;;-2.44;100.00
12172;BME280;6149;52.418;13.668;2023-02-28T03:34:31;102705.19;;;-2.46;100.00
12172;BME280;6149;52.418;13.668;2023-02-28T03:37:04;102704.19;;;-2.49;100.00
12172;BME280;6149;52.418;13.668;2023-02-28T03:39:37;102707.56;;;-2.52;100.00
12172;BME280;6149;52.418;13.668;2023-02-28T03:42:08;102709.16;;;-2.55;100.00
12172;BME280;6149;52.418;13.668;2023-02-28T03:44:41;102705.59;;;-2.59;100.00
12172;BME280;6149;52.418;13.668;2023-02-28T03:47:11;102712.34;;;-2.64;100.00
12172;BME280;6149;52.418;13.668;2023-02-28T03:49:45;102707.88;;;-2.68;100.00
12172;BME280;6149;52.418;13.668;2023-02-28T03:52:17;102717.31;;;-2.70;100.00
12172;BME280;6149;52.418;13.668;2023-02-28T03:54:52;102717.19;;;-2.73;100.00
12172;BME280;6149;52.418;13.668;2023-02-28T03:57:27;102712.78;;;-2.76;100.00
12172;BME280;6149;52.418;13.668;2023-02-28T03:59:59;102711.91;;;-2.76;100.00
12172;BME280;6149;52.418;13.668;2023-02-28T04:02:29;102716.91;;;-2.81;100.00
12172;BME280;6149;52.418;13.668;2023-02-28T04:04:56;102718.50;;;-2.84;100.00
12172;BME280;6149;52.418;13.668;2023-02-28T04:07:24;102714.03;;;-2.88;100.00
12172;BME280;6149;52.418;13.668;2023-02-28T04:09:51;102712.13;;;-2.94;100.00
12172;BME280;6149;52.418;13.668;2023-02-28T04:12:18;102712.88;;;-2.98;100.00
12172;BME280;6149;52.418;13.668;2023-02-28T04:14:44;102717.16;;;-2.98;100.00
12172;BME280;6149;52.418;13.668;2023-02-28T04:17:11;102717.88;;;-3.03;100.00
12172;BME280;6149;52.418;13.668;2023-02-28T04:19:37;102721.22;;;-3.05;100.00
12172;BME280;6149;52.418;13.668;2023-02-28T04:22:04;102718.47;;;-3.10;100.00
12172;BME280;6149;52.418;13.668;2023-02-28T04:24:32;102721.88;;;-3.11;100.00
12172;BME280;6149;52.418;13.668;2023-02-28T04:26:58;102709.72;;;-3.13;100.00
12172;BME280;6149;52.418;13.668;2023-02-28T04:29:26;102724.22;;;-3.17;100.00
12172;BME280;6149;52.418;13.668;2023-02-28T04:31:54;102730.22;;;-3.18;100.00
12172;BME280;6149;52.418;13.668;2023-02-28T04:34:23;102726.69;;;-3.20;100.00
12172;BME280;6149;52.418;13.668;2023-02-28T04:36:50;102727.47;;;-3.22;100.00
12172;BME280;6149;52.418;13.668;2023-02-28T04:39:19;102725.59;;;-3.26;100.00
12172;BME280;6149;52.418;13.668;2023-02-28T04:41:47;102722.81;;;-3.31;100.00
12172;BME280;6149;52.418;13.668;2023-02-28T04:44:14;102727.13;;;-3.31;100.00
12172;BME280;6149;52.418;13.668;2023-02-28T04:46:41;102729.63;;;-3.33;100.00
12172;BME280;6149;52.418;13.668;2023-02-28T04:49:11;102740.72;;;-3.37;100.00
12172;BME280;6149;52.418;13.668;2023-02-28T04:51:38;102731.97;;;-3.41;100.00
12172;BME280;6149;52.418;13.668;2023-02-28T04:54:05;102739.66;;;-3.42;100.00
12172;BME280;6149;52.418;13.668;2023-02-28T04:56:32;102743.06;;;-3.43;100.00
12172;BME280;6149;52.418;13.668;2023-02-28T04:59:00;102745.53;;;-3.46;100.00
12172;BME280;6149;52.418;13.668;2023-02-28T05:01:27;102742.81;;;-3.49;100.00
12172;BME280;6149;52.418;13.668;2023-02-28T05:03:56;102746.19;;;-3.52;100.00
12172;BME280;6149;52.418;13.668;2023-02-28T05:06:25;102745.16;;;-3.55;100.00
12172;BME280;6149;52.418;13.668;2023-02-28T05:08:54;102746.81;;;-3.57;100.00
12172;BME280;6149;52.418;13.668;2023-02-28T05:11:22;102745.94;;;-3.58;100.00
12172;BME280;6149;52.418;13.668;2023-02-28T05:13:51;102743.16;;;-3.62;100.00
12172;BME280;6149;52.418;13.668;2023-02-28T05:16:20;102743.88;;;-3.66;100.00
12172;BME280;6149;52.418;13.668;2023-02-28T05:18:47;102752.50;;;-3.66;100.00
12172;BME280;6149;52.418;13.668;2023-02-28T05:21:26;102748.91;;;-3.70;100.00
12172;BME280;6149;52.418;13.668;2023-02-28T05:23:55;102748.81;;;-3.73;100.00
12172;BME280;6149;52.418;13.668;2023-02-28T05:26:23;102753.88;;;-3.76;100.00
12172;BME280;6149;52.418;13.668;2023-02-28T05:28:50;102761.56;;;-3.77;100.00
12172;BME280;6149;52.418;13.668;2023-02-28T05:31:16;102757.16;;;-3.80;100.00
12172;BME280;6149;52.418;13.668;2023-02-28T05:33:44;102758.84;;;-3.80;100.00
12172;BME280;6149;52.418;13.668;2023-02-28T05:36:11;102754.44;;;-3.83;100.00
12172;BME280;6149;52.418;13.668;2023-02-28T05:38:37;102756.94;;;-3.84;100.00
12172;BME280;6149;52.418;13.668;2023-02-28T05:41:05;102760.22;;;-3.88;100.00
12172;BME280;6149;52.418;13.668;2023-02-28T05:43:32;102757.47;;;-3.93;100.00
12172;BME280;6149;52.418;13.668;2023-02-28T05:46:02;102761.75;;;-3.93;100.00
12172;BME280;6149;52.418;13.668;2023-02-28T05:48:29;102757.28;;;-3.97;100.00
12172;BME280;6149;52.418;13.668;2023-02-28T05:50:58;102752.84;;;-4.00;100.00
12172;BME280;6149;52.418;13.668;2023-02-28T05:53:24;102756.19;;;-4.03;100.00
12172;BME280;6149;52.418;13.668;2023-02-28T05:55:51;102760.41;;;-4.05;100.00
12172;BME280;6149;52.418;13.668;2023-02-28T05:58:18;102760.34;;;-4.06;100.00
12172;BME280;6149;52.418;13.668;2023-02-28T06:00:44;102761.13;;;-4.09;100.00
12172;BME280;6149;52.418;13.668;2023-02-28T06:03:11;102763.66;;;-4.10;100.00
12172;BME280;6149;52.418;13.668;2023-02-28T06:05:38;102764.47;;;-4.11;100.00
12172;BME280;6149;52.418;13.668;2023-02-28T06:08:06;102765.28;;;-4.12;100.00
12172;BME280;6149;52.418;13.668;2023-02-28T06:10:33;102770.47;;;-4.12;100.00
12172;BME280;6149;52.418;13.668;2023-02-28T06:13:00;102764.34;;;-4.14;100.00
12172;BME280;6149;52.418;13.668;2023-02-28T06:15:28;102765.09;;;-4.17;100.00
12172;BME280;6149;52.418;13.668;2023-02-28T06:17:55;102766.78;;;-4.17;100.00
12172;BME280;6149;52.418;13.668;2023-02-28T06:20:23;102779.72;;;-4.17;100.00
12172;BME280;6149;52.418;13.668;2023-02-28T06:22:51;102767.69;;;-4.17;100.00
12172;BME280;6149;52.418;13.668;2023-02-28T06:25:20;102772.84;;;-4.17;100.00
12172;BME280;6149;52.418;13.668;2023-02-28T06:27:47;102782.28;;;-4.17;100.00
12172;BME280;6149;52.418;13.668;2023-02-28T06:30:14;102777.19;;;-4.16;100.00
12172;BME280;6149;52.418;13.668;2023-02-28T06:32:41;102785.00;;;-4.14;100.00
12172;BME280;6149;52.418;13.668;2023-02-28T06:35:08;102786.78;;;-4.13;100.00
12172;BME280;6149;52.418;13.668;2023-02-28T06:37:35;102785.94;;;-4.12;100.00
12172;BME280;6149;52.418;13.668;2023-02-28T06:40:02;102785.22;;;-4.08;100.00
12172;BME280;6149;52.418;13.668;2023-02-28T06:42:33;102790.53;;;-4.05;100.00
12172;BME280;6149;52.418;13.668;2023-02-28T06:44:59;102789.97;;;-3.98;100.00
12172;BME280;6149;52.418;13.668;2023-02-28T06:47:28;102790.28;;;-3.90;100.00
12172;BME280;6149;52.418;13.668;2023-02-28T06:49:57;102798.38;;;-3.83;100.00
12172;BME280;6149;52.418;13.668;2023-02-28T06:52:23;102799.44;;;-3.78;100.00
12172;BME280;6149;52.418;13.668;2023-02-28T06:54:50;102804.72;;;-3.75;100.00
12172;BME280;6149;52.418;13.668;2023-02-28T06:57:24;102808.28;;;-3.71;100.00
12172;BME280;6149;52.418;13.668;2023-02-28T06:59:52;102814.41;;;-3.69;100.00
12172;BME280;6149;52.418;13.668;2023-02-28T07:02:19;102808.47;;;-3.66;100.00
12172;BME280;6149;52.418;13.668;2023-02-28T07:04:45;102812.97;;;-3.62;100.00
12172;BME280;6149;52.418;13.668;2023-02-28T07:07:12;102817.44;;;-3.58;100.00
12172;BME280;6149;52.418;13.668;2023-02-28T07:09:38;102818.38;;;-3.56;100.00
12172;BME280;6149;52.418;13.668;2023-02-28T07:12:05;102820.22;;;-3.54;100.00
12172;BME280;6149;52.418;13.668;2023-02-28T07:14:32;102814.34;;;-3.50;100.00
12172;BME280;6149;52.418;13.668;2023-02-28T07:16:59;102811.81;;;-3.48;100.00
12172;BME280;6149;52.418;13.668;2023-02-28T07:19:26;102813.72;;;-3.44;100.00
12172;BME280;6149;52.418;13.668;2023-02-28T07:21:53;102813.13;;;-3.37;100.00
12172;BME280;6149;52.418;13.668;2023-02-28T07:24:19;102814.09;;;-3.33;100.00
12172;BME280;6149;52.418;13.668;2023-02-28T07:26:48;102819.41;;;-3.30;100.00
12172;BME280;6149;52.418;13.668;2023-02-28T07:29:15;102816.94;;;-3.27;100.00
12172;BME280;6149;52.418;13.668;2023-02-28T07:31:41;102821.47;;;-3.22;100.00
12172;BME280;6149;52.418;13.668;2023-02-28T07:34:09;102814.88;;;-3.14;100.00
12172;BME280;6149;52.418;13.668;2023-02-28T07:36:36;102820.31;;;-3.08;100.00
12172;BME280;6149;52.418;13.668;2023-02-28T07:39:02;102821.38;;;-3.03;100.00
12172;BME280;6149;52.418;13.668;2023-02-28T07:41:29;102830.28;;;-2.94;100.00
12172;BME280;6149;52.418;13.668;2023-02-28T07:43:59;102826.41;;;-2.83;100.00
12172;BME280;6149;52.418;13.668;2023-02-28T07:46:26;102821.75;;;-2.70;100.00
12172;BME280;6149;52.418;13.668;2023-02-28T07:48:54;102820.63;;;-2.52;100.00
12172;BME280;6149;52.418;13.668;2023-02-28T07:51:26;102823.16;;;-2.30;100.00
12172;BME280;6149;52.418;13.668;2023-02-28T07:53:52;102820.31;;;-2.12;100.00
12172;BME280;6149;52.418;13.668;2023-02-28T07:56:19;102819.91;;;-1.99;100.00
12172;BME280;6149;52.418;13.668;2023-02-28T07:58:46;102812.56;;;-1.85;100.00
12172;BME280;6149;52.418;13.668;2023-02-28T08:01:12;102820.25;;;-1.63;100.00
12172;BME280;6149;52.418;13.668;2023-02-28T08:03:40;102824.53;;;-1.37;100.00
12172;BME280;6149;52.418;13.668;2023-02-28T08:06:08;102824.25;;;-1.19;100.00
12172;BME280;6149;52.418;13.668;2023-02-28T08:08:44;102826.66;;;-0.96;100.00
12172;BME280;6149;52.418;13.668;2023-02-28T08:11:11;102828.88;;;-0.80;100.00
12172;BME280;6149;52.418;13.668;2023-02-28T08:13:37;102828.69;;;-0.56;100.00
12172;BME280;6149;52.418;13.668;2023-02-28T08:16:05;102830.22;;;-0.31;100.00
12172;BME280;6149;52.418;13.668;2023-02-28T08:18:32;102826.50;;;-0.10;100.00
12172;BME280;6149;52.418;13.668;2023-02-28T08:20:58;102823.44;;;0.07;100.00
12172;BME280;6149;52.418;13.668;2023-02-28T08:23:25;102835.78;;;0.50;100.00
12172;BME280;6149;52.418;13.668;2023-02-28T08:25:56;102828.13;;;0.56;100.00
12172;BME280;6149;52.418;13.668;2023-02-28T08:28:23;102826.69;;;0.67;100.00
12172;BME280;6149;52.418;13.668;2023-02-28T08:30:50;102828.94;;;0.91;96.30
12172;BME280;6149;52.418;13.668;2023-02-28T08:33:16;102832.00;;;1.11;96.67
12172;BME280;6149;52.418;13.668;2023-02-28T08:35:43;102827.88;;;1.22;94.45
12172;BME280;6149;52.418;13.668;2023-02-28T08:38:09;102831.88;;;1.47;92.37
12172;BME280;6149;52.418;13.668;2023-02-28T08:40:36;102833.00;;;1.59;88.50
12172;BME280;6149;52.418;13.668;2023-02-28T08:43:04;102826.31;;;1.74;85.98
12172;BME280;6149;52.418;13.668;2023-02-28T08:45:30;102825.00;;;1.97;81.09
12172;BME280;6149;52.418;13.668;2023-02-28T08:47:57;102825.22;;;2.09;82.82
12172;BME280;6149;52.418;13.668;2023-02-28T08:50:24;102825.47;;;2.24;79.36
12172;BME280;6149;52.418;13.668;2023-02-28T08:52:50;102825.81;;;2.44;78.05
12172;BME280;6149;52.418;13.668;2023-02-28T08:55:17;102832.16;;;2.58;77.72
12172;BME280;6149;52.418;13.668;2023-02-28T08:57:43;102833.38;;;2.83;77.07
12172;BME280;6149;52.418;13.668;2023-02-28T09:00:12;102822.31;;;3.02;72.47
12172;BME280;6149;52.418;13.668;2023-02-28T09:02:39;102832.09;;;3.16;68.47
12172;BME280;6149;52.418;13.668;2023-02-28T09:05:08;102824.41;;;3.28;68.80
12172;BME280;6149;52.418;13.668;2023-02-28T09:07:34;102832.78;;;3.74;62.58
12172;BME280;6149;52.418;13.668;2023-02-28T09:10:01;102833.66;;;3.71;62.94
12172;BME280;6149;52.418;13.668;2023-02-28T09:12:32;102834.56;;;3.78;63.83
12172;BME280;6149;52.418;13.668;2023-02-28T09:14:59;102825.13;;;3.90;65.20
12172;BME280;6149;52.418;13.668;2023-02-28T09:17:27;102833.94;;;4.00;63.43
12172;BME280;6149;52.418;13.668;2023-02-28T09:19:54;102829.66;;;4.08;64.93
12172;BME280;6149;52.418;13.668;2023-02-28T09:22:20;102828.97;;;4.29;65.75
12172;BME280;6149;52.418;13.668;2023-02-28T09:24:47;102821.25;;;4.47;62.95
12172;BME280;6149;52.418;13.668;2023-02-28T09:27:13;102831.03;;;4.71;59.79
12172;BME280;6149;52.418;13.668;2023-02-28T09:29:40;102831.06;;;4.73;58.53
12172;BME280;6149;52.418;13.668;2023-02-28T09:32:06;102831.09;;;4.79;55.88
12172;BME280;6149;52.418;13.668;2023-02-28T09:34:34;102831.22;;;5.01;56.22
12172;BME280;6149;52.418;13.668;2023-02-28T09:37:02;102819.94;;;5.21;56.02
12172;BME280;6149;52.418;13.668;2023-02-28T09:39:28;102827.91;;;5.41;55.75
12172;BME280;6149;52.418;13.668;2023-02-28T09:41:55;102828.88;;;5.56;53.58
12172;BME280;6149;52.418;13.668;2023-02-28T09:44:28;102826.22;;;5.61;51.90
12172;BME280;6149;52.418;13.668;2023-02-28T09:46:59;102815.75;;;5.71;48.69
12172;BME280;6149;52.418;13.668;2023-02-28T09:49:36;102821.91;;;5.72;48.00
12172;BME280;6149;52.418;13.668;2023-02-28T09:52:07;102821.91;;;5.77;50.52
12172;BME280;6149;52.418;13.668;2023-02-28T09:54:36;102826.31;;;5.88;50.19
12172;BME280;6149;52.418;13.668;2023-02-28T09:57:07;102831.59;;;6.03;50.33
12172;BME280;6149;52.418;13.668;2023-02-28T10:00:00;102832.50;;;6.16;48.41
12172;BME280;6149;52.418;13.668;2023-02-28T10:02:53;102819.38;;;6.18;49.90
12172;BME280;6149;52.418;13.668;2023-02-28T10:05:38;102827.25;;;6.18;48.32
12172;BME280;6149;52.418;13.668;2023-02-28T10:08:12;102837.75;;;6.06;46.81
12172;BME280;6149;52.418;13.668;2023-02-28T10:10:42;102828.97;;;5.96;48.64
12172;BME280;6149;52.418;13.668;2023-02-28T10:13:22;102826.34;;;6.03;48.16
12172;BME280;6149;52.418;13.668;2023-02-28T10:15:54;102828.97;;;5.94;48.52
12172;BME280;6149;52.418;13.668;2023-02-28T10:18:26;102822.88;;;6.04;48.20
12172;BME280;6149;52.418;13.668;2023-02-28T10:20:56;102821.09;;;6.03;49.27
12172;BME280;6149;52.418;13.668;2023-02-28T10:23:25;102825.50;;;6.09;50.09
12172;BME280;6149;52.418;13.668;2023-02-28T10:25:58;102818.50;;;6.23;50.46
12172;BME280;6149;52.418;13.668;2023-02-28T10:28:28;102821.13;;;6.17;49.12
12172;BME280;6149;52.418;13.668;2023-02-28T10:30:56;102827.25;;;6.19;48.61
12172;BME280;6149;52.418;13.668;2023-02-28T10:33:25;102827.25;;;6.18;48.75
12172;BME280;6149;52.418;13.668;2023-02-28T10:35:57;102826.38;;;6.07;48.35
12172;BME280;6149;52.418;13.668;2023-02-28T10:38:26;102824.63;;;6.09;48.89
12172;BME280;6149;52.418;13.668;2023-02-28T10:41:04;102821.09;;;6.03;50.02
12172;BME280;6149;52.418;13.668;2023-02-28T10:43:34;102818.50;;;6.13;48.29
12172;BME280;6149;52.418;13.668;2023-02-28T10:46:03;102814.97;;;5.97;48.44
12172;BME280;6149;52.418;13.668;2023-02-28T10:48:37;102814.09;;;6.07;51.16
12172;BME280;6149;52.418;13.668;2023-02-28T10:51:07;102818.50;;;6.13;47.65
12172;BME280;6149;52.418;13.668;2023-02-28T10:53:45;102808.00;;;6.22;49.45
12172;BME280;6149;52.418;13.668;2023-02-28T10:56:17;102801.00;;;6.12;47.93
12172;BME280;6149;52.418;13.668;2023-02-28T10:58:50;102803.63;;;6.19;48.36
12172;BME280;6149;52.418;13.668;2023-02-28T11:01:21;102802.72;;;6.05;49.86
12172;BME280;6149;52.418;13.668;2023-02-28T11:03:51;102798.34;;;6.02;48.23
12172;BME280;6149;52.418;13.668;2023-02-28T11:06:21;102794.84;;;5.90;48.48
12172;BME280;6149;52.418;13.668;2023-02-28T11:08:52;102794.84;;;5.97;49.60
12172;BME280;6149;52.418;13.668;2023-02-28T11:11:21;102792.22;;;6.08;46.70
12172;BME280;6149;52.418;13.668;2023-02-28T11:13:52;102786.97;;;6.17;47.17
12172;BME280;6149;52.418;13.668;2023-02-28T11:16:20;102785.25;;;6.22;47.56
12172;BME280;6149;52.418;13.668;2023-02-28T11:18:49;102780.84;;;6.32;49.37
12172;BME280;6149;52.418;13.668;2023-02-28T11:21:22;102776.44;;;6.49;47.34
12172;BME280;6149;52.418;13.668;2023-02-28T11:23:54;102775.56;;;6.64;46.51
12172;BME280;6149;52.418;13.668;2023-02-28T11:26:37;102776.38;;;6.78;47.26
12172;BME280;6149;52.418;13.668;2023-02-28T11:29:18;102770.25;;;6.71;48.34
12172;BME280;6149;52.418;13.668;2023-02-28T11:32:05;102758.84;;;6.86;48.43
12172;BME280;6149;52.418;13.668;2023-02-28T11:34:39;102769.34;;;6.86;46.02
12172;BME280;6149;52.418;13.668;2023-02-28T11:37:12;102774.63;;;6.88;46.29
12172;BME280;6149;52.418;13.668;2023-02-28T11:39:40;102767.63;;;6.75;48.81
12172;BME280;6149;52.418;13.668;2023-02-28T11:42:19;102779.94;;;6.56;47.98
12172;BME280;6149;52.418;13.668;2023-02-28T11:45:15;102785.19;;;6.62;48.19
12172;BME280;6149;52.418;13.668;2023-02-28T11:47:53;102780.81;;;6.56;46.69
12172;BME280;6149;52.418;13.668;2023-02-28T11:50:43;102774.69;;;6.51;47.74
12172;BME280;6149;52.418;13.668;2023-02-28T11:53:22;102773.81;;;6.45;47.91
12172;BME280;6149;52.418;13.668;2023-02-28T11:56:06;102767.69;;;6.43;48.59
12172;BME280;6149;52.418;13.668;2023-02-28T11:58:44;102776.47;;;6.43;48.81
12172;BME280;6149;52.418;13.668;2023-02-28T12:01:35;102779.06;;;6.32;47.11
12172;BME280;6149;52.418;13.668;2023-02-28T12:04:17;102773.84;;;6.19;48.18
12172;BME280;6149;52.418;13.668;2023-02-28T12:06:57;102771.22;;;6.13;47.52
12172;BME280;6149;52.418;13.668;2023-02-28T12:09:42;102765.09;;;6.11;47.78
12172;BME280;6149;52.418;13.668;2023-02-28T12:12:27;102770.34;;;6.09;49.46
12172;BME280;6149;52.418;13.668;2023-02-28T12:15:16;102762.47;;;6.04;48.26
12172;BME280;6149;52.418;13.668;2023-02-28T12:18:03;102765.09;;;5.91;48.20
12172;BME280;6149;52.418;13.668;2023-02-28T12:20:40;102758.06;;;5.88;49.57
12172;BME280;6149;52.418;13.668;2023-02-28T12:23:24;102751.91;;;5.82;49.49
12172;BME280;6149;52.418;13.668;2023-02-28T12:26:10;102758.03;;;5.71;49.50
12172;BME280;6149;52.418;13.668;2023-02-28T12:28:45;102743.16;;;5.70;48.94
12172;BME280;6149;52.418;13.668;2023-02-28T12:31:18;102744.91;;;5.71;49.88
12172;BME280;6149;52.418;13.668;2023-02-28T12:33:51;102744.91;;;5.78;49.15
12172;BME280;6149;52.418;13.668;2023-02-28T12:36:20;102744.94;;;5.87;50.54
12172;BME280;6149;52.418;13.668;2023-02-28T12:38:52;102742.34;;;5.91;47.96
12172;BME280;6149;52.418;13.668;2023-02-28T12:41:26;102740.56;;;5.96;48.81
12172;BME280;6149;52.418;13.668;2023-02-28T12:44:01;102732.69;;;6.10;48.60
12172;BME280;6149;52.418;13.668;2023-02-28T12:46:31;102716.94;;;6.01;47.97
12172;BME280;6149;52.418;13.668;2023-02-28T12:49:05;102708.19;;;6.00;48.91
12172;BME280;6149;52.418;13.668;2023-02-28T12:51:35;102698.56;;;6.02;48.38
12172;BME280;6149;52.418;13.668;2023-02-28T12:54:11;102690.66;;;6.19;49.30
12172;BME280;6149;52.418;13.668;2023-02-28T12:56:47;102682.78;;;6.21;48.24
12172;BME280;6149;52.418;13.668;2023-02-28T12:59:23;102687.19;;;6.17;48.75
12172;BME280;6149;52.418;13.668;2023-02-28T13:05:07;102681.06;;;6.00;48.27
12172;BME280;6149;52.418;13.668;2023-02-28T13:08:43;102673.16;;;5.88;49.48
12172;BME280;6149;52.418;13.668;2023-02-28T13:11:26;102676.66;;;5.75;50.17